sensor_id;sensor_type;location;lat;lon;timestamp;pressure;altitude;pressure_sealevel;temperature
79756;BMP280;69239;50.678;12.280;2023-07-29T00:02:16;97066.81;;;20.16
79756;BMP280;69239;50.678;12.280;2023-07-29T00:04:42;97061.47;;;20.16
79756;BMP280;69239;50.678;12.280;2023-07-29T00:07:07;97059.94;;;20.15
79756;BMP280;69239;50.678;12.280;2023-07-29T00:09:32;97061.09;;;20.14
79756;BMP280;69239;50.678;12.280;2023-07-29T00:11:58;97060.34;;;20.10
79756;BMP280;69239;50.678;12.280;2023-07-29T00:14:23;97060.75;;;20.12
79756;BMP280;69239;50.678;12.280;2023-07-29T00:16:48;97053.09;;;20.10
79756;BMP280;69239;50.678;12.280;2023-07-29T00:19:14;97059.22;;;20.07
79756;BMP280;69239;50.678;12.280;2023-07-29T00:21:39;97053.13;;;20.07
79756;BMP280;69239;50.678;12.280;2023-07-29T00:24:06;97055.78;;;20.07
79756;BMP280;69239;50.678;12.280;2023-07-29T00:26:31;97045.47;;;20.05
79756;BMP280;69239;50.678;12.280;2023-07-29T00:28:57;97041.66;;;20.03
79756;BMP280;69239;50.678;12.280;2023-07-29T00:31:22;97041.66;;;20.03
79756;BMP280;69239;50.678;12.280;2023-07-29T00:33:48;97033.25;;;20.01
79756;BMP280;69239;50.678;12.280;2023-07-29T00:36:13;97029.47;;;19.95
79756;BMP280;69239;50.678;12.280;2023-07-29T00:38:39;97032.91;;;19.95
79756;BMP280;69239;50.678;12.280;2023-07-29T00:41:04;97034.44;;;19.93
79756;BMP280;69239;50.678;12.280;2023-07-29T00:43:30;97032.53;;;19.90
79756;BMP280;69239;50.678;12.280;2023-07-29T00:45:56;97024.91;;;19.85
79756;BMP280;69239;50.678;12.280;2023-07-29T00:48:23;97033.69;;;19.85
79756;BMP280;69239;50.678;12.280;2023-07-29T00:50:49;97027.22;;;19.83
79756;BMP280;69239;50.678;12.280;2023-07-29T00:53:14;97026.81;;;19.81
79756;BMP280;69239;50.678;12.280;2023-07-29T00:55:40;97026.44;;;19.75
79756;BMP280;69239;50.678;12.280;2023-07-29T00:58:07;97021.50;;;19.73
79756;BMP280;69239;50.678;12.280;2023-07-29T01:00:32;97016.19;;;19.70
79756;BMP280;69239;50.678;12.280;2023-07-29T01:02:57;97025.34;;;19.69
79756;BMP280;69239;50.678;12.280;2023-07-29T01:05:30;97027.25;;;19.65
79756;BMP280;69239;50.678;12.280;2023-07-29T01:11:41;97021.91;;;19.61
79756;BMP280;69239;50.678;12.280;2023-07-29T01:17:24;97027.22;;;19.54
79756;BMP280;69239;50.678;12.280;2023-07-29T01:20:07;97026.13;;;19.52
79756;BMP280;69239;50.678;12.280;2023-07-29T01:22:34;97028.03;;;19.51
79756;BMP280;69239;50.678;12.280;2023-07-29T01:25:01;97020.41;;;19.50
79756;BMP280;69239;50.678;12.280;2023-07-29T01:27:26;97029.94;;;19.47
79756;BMP280;69239;50.678;12.280;2023-07-29T01:29:53;97026.09;;;19.45
79756;BMP280;69239;50.678;12.280;2023-07-29T01:35:16;97019.66;;;19.42
79756;BMP280;69239;50.678;12.280;2023-07-29T01:37:44;97031.47;;;19.41
79756;BMP280;69239;50.678;12.280;2023-07-29T01:40:13;97023.06;;;19.39
79756;BMP280;69239;50.678;12.280;2023-07-29T01:42:39;97023.06;;;19.39
79756;BMP280;69239;50.678;12.280;2023-07-29T01:45:05;97023.47;;;19.41
79756;BMP280;69239;50.678;12.280;2023-07-29T01:47:30;97017.72;;;19.39
79756;BMP280;69239;50.678;12.280;2023-07-29T01:49:55;97031.06;;;19.39
79756;BMP280;69239;50.678;12.280;2023-07-29T01:52:21;97028.41;;;19.39
79756;BMP280;69239;50.678;12.280;2023-07-29T01:54:46;97027.66;;;19.38
79756;BMP280;69239;50.678;12.280;2023-07-29T01:57:12;97031.81;;;19.39
79756;BMP280;69239;50.678;12.280;2023-07-29T01:59:37;97023.44;;;19.37
79756;BMP280;69239;50.678;12.280;2023-07-29T02:02:02;97033.75;;;19.39
79756;BMP280;69239;50.678;12.280;2023-07-29T02:04:28;97028.78;;;19.41
79756;BMP280;69239;50.678;12.280;2023-07-29T02:06:53;97022.66;;;19.40
79756;BMP280;69239;50.678;12.280;2023-07-29T02:09:18;97024.97;;;19.42
79756;BMP280;69239;50.678;12.280;2023-07-29T02:11:44;97027.66;;;19.42
79756;BMP280;69239;50.678;12.280;2023-07-29T02:14:09;97026.47;;;19.39
79756;BMP280;69239;50.678;12.280;2023-07-29T02:16:34;97023.47;;;19.41
79756;BMP280;69239;50.678;12.280;2023-07-29T02:19:00;97024.97;;;19.42
79756;BMP280;69239;50.678;12.280;2023-07-29T02:21:25;97025.34;;;19.44
79756;BMP280;69239;50.678;12.280;2023-07-29T02:23:51;97022.66;;;19.44
79756;BMP280;69239;50.678;12.280;2023-07-29T02:26:16;97027.63;;;19.46
79756;BMP280;69239;50.678;12.280;2023-07-29T02:28:42;97030.31;;;19.46
79756;BMP280;69239;50.678;12.280;2023-07-29T02:31:23;97027.63;;;19.46
79756;BMP280;69239;50.678;12.280;2023-07-29T02:33:49;97018.09;;;19.45
79756;BMP280;69239;50.678;12.280;2023-07-29T02:36:15;97021.91;;;19.47
79756;BMP280;69239;50.678;12.280;2023-07-29T02:38:42;97020.00;;;19.44
79756;BMP280;69239;50.678;12.280;2023-07-29T02:41:08;97022.66;;;19.44
79756;BMP280;69239;50.678;12.280;2023-07-29T02:43:42;97018.13;;;19.48
79756;BMP280;69239;50.678;12.280;2023-07-29T02:46:08;97018.13;;;19.48
79756;BMP280;69239;50.678;12.280;2023-07-29T02:48:33;97009.72;;;19.46
79756;BMP280;69239;50.678;12.280;2023-07-29T02:50:58;97012.00;;;19.44
79756;BMP280;69239;50.678;12.280;2023-07-29T02:53:24;97010.47;;;19.47
79756;BMP280;69239;50.678;12.280;2023-07-29T02:55:50;97012.78;;;19.48
79756;BMP280;69239;50.678;12.280;2023-07-29T02:58:17;97018.88;;;19.49
79756;BMP280;69239;50.678;12.280;2023-07-29T03:00:42;97019.63;;;19.49
79756;BMP280;69239;50.678;12.280;2023-07-29T03:03:08;97016.19;;;19.49
79756;BMP280;69239;50.678;12.280;2023-07-29T03:05:34;97011.22;;;19.47
79756;BMP280;69239;50.678;12.280;2023-07-29T03:07:59;97012.78;;;19.48
79756;BMP280;69239;50.678;12.280;2023-07-29T03:10:25;97021.16;;;19.50
79756;BMP280;69239;50.678;12.280;2023-07-29T03:12:50;97026.50;;;19.50
79756;BMP280;69239;50.678;12.280;2023-07-29T03:15:16;97023.81;;;19.50
79756;BMP280;69239;50.678;12.280;2023-07-29T03:17:41;97021.53;;;19.49
79756;BMP280;69239;50.678;12.280;2023-07-29T03:20:07;97022.69;;;19.51
79756;BMP280;69239;50.678;12.280;2023-07-29T03:22:33;97021.13;;;19.54
79756;BMP280;69239;50.678;12.280;2023-07-29T03:24:58;97020.38;;;19.53
79756;BMP280;69239;50.678;12.280;2023-07-29T03:27:23;97016.56;;;19.54
79756;BMP280;69239;50.678;12.280;2023-07-29T03:29:49;97018.88;;;19.56
79756;BMP280;69239;50.678;12.280;2023-07-29T03:32:14;97013.53;;;19.56
79756;BMP280;69239;50.678;12.280;2023-07-29T03:34:39;97008.97;;;19.56
79756;BMP280;69239;50.678;12.280;2023-07-29T03:37:05;97013.13;;;19.57
79756;BMP280;69239;50.678;12.280;2023-07-29T03:39:31;97008.97;;;19.56
79756;BMP280;69239;50.678;12.280;2023-07-29T03:41:57;97002.09;;;19.55
79756;BMP280;69239;50.678;12.280;2023-07-29T03:44:22;97009.69;;;19.60
79756;BMP280;69239;50.678;12.280;2023-07-29T03:46:47;97009.31;;;19.58
79756;BMP280;69239;50.678;12.280;2023-07-29T03:49:13;97002.06;;;19.59
79756;BMP280;69239;50.678;12.280;2023-07-29T03:51:38;96999.41;;;19.55
79756;BMP280;69239;50.678;12.280;2023-07-29T03:54:04;97006.25;;;19.60
79756;BMP280;69239;50.678;12.280;2023-07-29T03:56:29;97010.09;;;19.62
79756;BMP280;69239;50.678;12.280;2023-07-29T03:59:05;97010.47;;;19.61
79756;BMP280;69239;50.678;12.280;2023-07-29T04:01:30;97016.56;;;19.61
79756;BMP280;69239;50.678;12.280;2023-07-29T04:03:56;97010.84;;;19.63
79756;BMP280;69239;50.678;12.280;2023-07-29T04:06:21;97010.47;;;19.64
79756;BMP280;69239;50.678;12.280;2023-07-29T04:08:48;96999.78;;;19.61
79756;BMP280;69239;50.678;12.280;2023-07-29T04:11:13;97005.88;;;19.65
79756;BMP280;69239;50.678;12.280;2023-07-29T04:13:38;97015.00;;;19.67
79756;BMP280;69239;50.678;12.280;2023-07-29T04:16:04;97000.53;;;19.68
79756;BMP280;69239;50.678;12.280;2023-07-29T04:18:30;96992.50;;;19.68
79756;BMP280;69239;50.678;12.280;2023-07-29T04:20:55;96990.63;;;19.69
79756;BMP280;69239;50.678;12.280;2023-07-29T04:23:21;96982.22;;;19.70
79756;BMP280;69239;50.678;12.280;2023-07-29T04:25:46;96979.91;;;19.72
79756;BMP280;69239;50.678;12.280;2023-07-29T04:28:11;96970.75;;;19.73
79756;BMP280;69239;50.678;12.280;2023-07-29T04:30:37;96981.44;;;19.77
79756;BMP280;69239;50.678;12.280;2023-07-29T04:33:02;96976.09;;;19.77
79756;BMP280;69239;50.678;12.280;2023-07-29T04:35:28;96971.53;;;19.77
79756;BMP280;69239;50.678;12.280;2023-07-29T04:37:53;96983.69;;;19.82
79756;BMP280;69239;50.678;12.280;2023-07-29T04:40:18;96980.66;;;19.84
79756;BMP280;69239;50.678;12.280;2023-07-29T04:42:44;96986.75;;;19.84
79756;BMP280;69239;50.678;12.280;2023-07-29T04:45:09;96979.13;;;19.86
79756;BMP280;69239;50.678;12.280;2023-07-29T04:47:35;96974.16;;;19.85
79756;BMP280;69239;50.678;12.280;2023-07-29T04:50:00;96976.03;;;19.88
79756;BMP280;69239;50.678;12.280;2023-07-29T04:52:25;96975.31;;;19.87
79756;BMP280;69239;50.678;12.280;2023-07-29T04:54:51;96980.66;;;19.87
79756;BMP280;69239;50.678;12.280;2023-07-29T04:57:16;96973.78;;;19.86
79756;BMP280;69239;50.678;12.280;2023-07-29T04:59:41;96969.56;;;19.89
79756;BMP280;69239;50.678;12.280;2023-07-29T05:02:07;96960.44;;;19.86
79756;BMP280;69239;50.678;12.280;2023-07-29T05:04:32;96961.16;;;19.94
79756;BMP280;69239;50.678;12.280;2023-07-29T05:06:57;96973.75;;;19.97
79756;BMP280;69239;50.678;12.280;2023-07-29T05:09:23;96971.81;;;20.01
79756;BMP280;69239;50.678;12.280;2023-07-29T05:11:48;96976.00;;;20.05
79756;BMP280;69239;50.678;12.280;2023-07-29T05:14:15;96976.38;;;20.07
79756;BMP280;69239;50.678;12.280;2023-07-29T05:16:40;96970.66;;;20.09
79756;BMP280;69239;50.678;12.280;2023-07-29T05:19:06;96972.56;;;20.12
79756;BMP280;69239;50.678;12.280;2023-07-29T05:21:31;96971.38;;;20.17
79756;BMP280;69239;50.678;12.280;2023-07-29T05:23:57;96979.00;;;20.18
79756;BMP280;69239;50.678;12.280;2023-07-29T05:26:23;96980.91;;;20.21
79756;BMP280;69239;50.678;12.280;2023-07-29T05:28:49;96979.00;;;20.25
79756;BMP280;69239;50.678;12.280;2023-07-29T05:31:14;96992.66;;;20.31
79756;BMP280;69239;50.678;12.280;2023-07-29T05:33:39;96997.25;;;20.37
79756;BMP280;69239;50.678;12.280;2023-07-29T05:36:05;96993.78;;;20.40
79756;BMP280;69239;50.678;12.280;2023-07-29T05:38:30;96996.44;;;20.44
79756;BMP280;69239;50.678;12.280;2023-07-29T05:40:56;96995.66;;;20.50
79756;BMP280;69239;50.678;12.280;2023-07-29T05:43:21;96985.66;;;20.58
79756;BMP280;69239;50.678;12.280;2023-07-29T05:45:47;96992.50;;;20.66
79756;BMP280;69239;50.678;12.280;2023-07-29T05:48:12;96993.19;;;20.74
79756;BMP280;69239;50.678;12.280;2023-07-29T05:50:37;96984.75;;;20.82
79756;BMP280;69239;50.678;12.280;2023-07-29T05:53:03;96989.66;;;20.91
79756;BMP280;69239;50.678;12.280;2023-07-29T05:55:28;96986.94;;;20.98
79756;BMP280;69239;50.678;12.280;2023-07-29T05:57:54;96999.50;;;21.05
79756;BMP280;69239;50.678;12.280;2023-07-29T06:00:20;96988.34;;;21.13
79756;BMP280;69239;50.678;12.280;2023-07-29T06:02:45;96984.84;;;21.20
79756;BMP280;69239;50.678;12.280;2023-07-29T06:05:10;96989.72;;;21.32
79756;BMP280;69239;50.678;12.280;2023-07-29T06:07:36;96994.53;;;21.48
79756;BMP280;69239;50.678;12.280;2023-07-29T06:10:01;96994.13;;;21.53
79756;BMP280;69239;50.678;12.280;2023-07-29T06:12:27;96994.81;;;21.57
79756;BMP280;69239;50.678;12.280;2023-07-29T06:14:52;97001.69;;;21.58
79756;BMP280;69239;50.678;12.280;2023-07-29T06:17:17;96991.72;;;21.62
79756;BMP280;69239;50.678;12.280;2023-07-29T06:19:43;96996.25;;;21.65
79756;BMP280;69239;50.678;12.280;2023-07-29T06:22:09;96995.13;;;21.66
79756;BMP280;69239;50.678;12.280;2023-07-29T06:24:35;96995.13;;;21.66
79756;BMP280;69239;50.678;12.280;2023-07-29T06:27:00;96996.31;;;21.61
79756;BMP280;69239;50.678;12.280;2023-07-29T06:29:25;96997.47;;;21.60
79756;BMP280;69239;50.678;12.280;2023-07-29T06:31:51;97002.44;;;21.62
79756;BMP280;69239;50.678;12.280;2023-07-29T06:34:17;96992.81;;;21.64
79756;BMP280;69239;50.678;12.280;2023-07-29T06:36:42;96994.66;;;21.71
79756;BMP280;69239;50.678;12.280;2023-07-29T06:39:08;96988.88;;;21.76
79756;BMP280;69239;50.678;12.280;2023-07-29T06:41:33;96993.84;;;21.78
79756;BMP280;69239;50.678;12.280;2023-07-29T06:43:58;96982.28;;;21.84
79756;BMP280;69239;50.678;12.280;2023-07-29T06:46:24;96978.34;;;21.92
79756;BMP280;69239;50.678;12.280;2023-07-29T06:48:49;96971.31;;;22.06
79756;BMP280;69239;50.678;12.280;2023-07-29T06:51:14;96977.97;;;22.24
79756;BMP280;69239;50.678;12.280;2023-07-29T06:53:40;96962.88;;;22.34
79756;BMP280;69239;50.678;12.280;2023-07-29T06:56:05;96960.06;;;22.45
79756;BMP280;69239;50.678;12.280;2023-07-29T06:58:30;96954.63;;;22.48
79756;BMP280;69239;50.678;12.280;2023-07-29T07:00:56;96936.16;;;22.54
79756;BMP280;69239;50.678;12.280;2023-07-29T07:03:21;96940.63;;;22.64
79756;BMP280;69239;50.678;12.280;2023-07-29T07:05:46;96932.03;;;22.72
79756;BMP280;69239;50.678;12.280;2023-07-29T07:08:12;96923.56;;;22.74
79756;BMP280;69239;50.678;12.280;2023-07-29T07:10:37;96915.81;;;22.80
79756;BMP280;69239;50.678;12.280;2023-07-29T07:13:02;96898.84;;;22.86
79756;BMP280;69239;50.678;12.280;2023-07-29T07:17:55;96907.84;;;22.96
79756;BMP280;69239;50.678;12.280;2023-07-29T07:20:21;96929.34;;;22.96
79756;BMP280;69239;50.678;12.280;2023-07-29T07:22:46;96925.59;;;22.90
79756;BMP280;69239;50.678;12.280;2023-07-29T07:25:11;96931.91;;;22.80
79756;BMP280;69239;50.678;12.280;2023-07-29T07:27:37;96925.53;;;22.70
79756;BMP280;69239;50.678;12.280;2023-07-29T07:30:03;96933.66;;;22.66
79756;BMP280;69239;50.678;12.280;2023-07-29T07:32:28;96936.75;;;22.65
79756;BMP280;69239;50.678;12.280;2023-07-29T07:34:54;96937.56;;;22.62
79756;BMP280;69239;50.678;12.280;2023-07-29T07:37:19;96937.97;;;22.60
79756;BMP280;69239;50.678;12.280;2023-07-29T07:39:44;96951.56;;;22.50
79756;BMP280;69239;50.678;12.280;2023-07-29T07:42:10;96951.31;;;22.41
79756;BMP280;69239;50.678;12.280;2023-07-29T07:44:35;96947.28;;;22.29
79756;BMP280;69239;50.678;12.280;2023-07-29T07:47:00;96964.13;;;22.26
79756;BMP280;69239;50.678;12.280;2023-07-29T07:49:26;96952.75;;;22.18
79756;BMP280;69239;50.678;12.280;2023-07-29T07:51:51;96958.88;;;22.19
79756;BMP280;69239;50.678;12.280;2023-07-29T07:54:16;96962.41;;;22.12
79756;BMP280;69239;50.678;12.280;2023-07-29T07:56:43;96951.66;;;22.16
79756;BMP280;69239;50.678;12.280;2023-07-29T07:59:08;96957.59;;;22.27
79756;BMP280;69239;50.678;12.280;2023-07-29T08:01:35;96954.63;;;22.48
79756;BMP280;69239;50.678;12.280;2023-07-29T08:04:01;96939.91;;;22.60
79756;BMP280;69239;50.678;12.280;2023-07-29T08:06:26;96939.03;;;22.66
79756;BMP280;69239;50.678;12.280;2023-07-29T08:08:52;96937.41;;;22.72
79756;BMP280;69239;50.678;12.280;2023-07-29T08:11:17;96927.97;;;22.84
79756;BMP280;69239;50.678;12.280;2023-07-29T08:13:42;96922.69;;;23.04
79756;BMP280;69239;50.678;12.280;2023-07-29T08:16:08;96930.41;;;23.22
79756;BMP280;69239;50.678;12.280;2023-07-29T08:18:33;96927.47;;;23.56
79756;BMP280;69239;50.678;12.280;2023-07-29T08:21:00;96930.22;;;23.72
79756;BMP280;69239;50.678;12.280;2023-07-29T08:23:29;96923.34;;;23.71
79756;BMP280;69239;50.678;12.280;2023-07-29T08:25:56;96944.53;;;23.65
79756;BMP280;69239;50.678;12.280;2023-07-29T08:28:26;96943.47;;;23.63
79756;BMP280;69239;50.678;12.280;2023-07-29T08:30:52;96935.03;;;23.61
79756;BMP280;69239;50.678;12.280;2023-07-29T08:33:17;96933.31;;;23.70
79756;BMP280;69239;50.678;12.280;2023-07-29T08:35:43;96921.53;;;23.84
79756;BMP280;69239;50.678;12.280;2023-07-29T08:38:08;96928.41;;;23.85
79756;BMP280;69239;50.678;12.280;2023-07-29T08:40:34;96931.13;;;24.01
79756;BMP280;69239;50.678;12.280;2023-07-29T08:43:05;96929.31;;;24.14
79756;BMP280;69239;50.678;12.280;2023-07-29T08:45:34;96930.91;;;24.12
79756;BMP280;69239;50.678;12.280;2023-07-29T08:48:02;96933.38;;;24.03
79756;BMP280;69239;50.678;12.280;2023-07-29T08:50:32;96937.34;;;23.98
79756;BMP280;69239;50.678;12.280;2023-07-29T08:52:59;96944.38;;;23.92
79756;BMP280;69239;50.678;12.280;2023-07-29T08:55:25;96947.41;;;23.94
79756;BMP280;69239;50.678;12.280;2023-07-29T08:57:51;96946.81;;;23.86
79756;BMP280;69239;50.678;12.280;2023-07-29T09:00:17;96940.69;;;23.86
79756;BMP280;69239;50.678;12.280;2023-07-29T09:02:42;96939.84;;;23.89
79756;BMP280;69239;50.678;12.280;2023-07-29T09:05:08;96941.00;;;23.88
79756;BMP280;69239;50.678;12.280;2023-07-29T09:07:34;96943.94;;;23.77
79756;BMP280;69239;50.678;12.280;2023-07-29T09:10:01;96953.38;;;23.66
79756;BMP280;69239;50.678;12.280;2023-07-29T09:12:26;96951.31;;;23.53
79756;BMP280;69239;50.678;12.280;2023-07-29T09:14:52;96960.25;;;23.47
79756;BMP280;69239;50.678;12.280;2023-07-29T09:17:18;96963.59;;;23.35
79756;BMP280;69239;50.678;12.280;2023-07-29T09:19:48;96955.97;;;23.30
79756;BMP280;69239;50.678;12.280;2023-07-29T09:22:20;96962.25;;;23.23
79756;BMP280;69239;50.678;12.280;2023-07-29T09:24:46;96960.41;;;23.20
79756;BMP280;69239;50.678;12.280;2023-07-29T09:27:25;96963.88;;;23.17
79756;BMP280;69239;50.678;12.280;2023-07-29T09:29:52;96958.28;;;23.08
79756;BMP280;69239;50.678;12.280;2023-07-29T09:32:22;96946.16;;;23.00
79756;BMP280;69239;50.678;12.280;2023-07-29T09:34:48;96956.19;;;22.96
79756;BMP280;69239;50.678;12.280;2023-07-29T09:37:20;96959.69;;;22.93
79756;BMP280;69239;50.678;12.280;2023-07-29T09:39:46;96958.19;;;22.92
79756;BMP280;69239;50.678;12.280;2023-07-29T09:42:22;96956.59;;;22.94
79756;BMP280;69239;50.678;12.280;2023-07-29T09:44:50;96957.28;;;22.98
79756;BMP280;69239;50.678;12.280;2023-07-29T09:47:23;96948.34;;;23.05
79756;BMP280;69239;50.678;12.280;2023-07-29T09:49:50;96944.44;;;23.09
79756;BMP280;69239;50.678;12.280;2023-07-29T09:52:17;96958.16;;;23.15
79756;BMP280;69239;50.678;12.280;2023-07-29T09:54:44;96950.44;;;23.17
79756;BMP280;69239;50.678;12.280;2023-07-29T09:57:11;96941.22;;;23.18
79756;BMP280;69239;50.678;12.280;2023-07-29T09:59:37;96940.44;;;23.17
79756;BMP280;69239;50.678;12.280;2023-07-29T10:02:03;96952.03;;;23.14
79756;BMP280;69239;50.678;12.280;2023-07-29T10:04:29;96946.47;;;23.02
79756;BMP280;69239;50.678;12.280;2023-07-29T10:06:56;96937.91;;;22.87
79756;BMP280;69239;50.678;12.280;2023-07-29T10:09:23;96950.81;;;22.96
79756;BMP280;69239;50.678;12.280;2023-07-29T10:11:49;96954.09;;;23.07
79756;BMP280;69239;50.678;12.280;2023-07-29T10:14:16;96949.69;;;23.17
79756;BMP280;69239;50.678;12.280;2023-07-29T10:16:42;96955.03;;;23.20
79756;BMP280;69239;50.678;12.280;2023-07-29T10:19:10;96949.66;;;23.20
79756;BMP280;69239;50.678;12.280;2023-07-29T10:21:38;96951.28;;;23.14
79756;BMP280;69239;50.678;12.280;2023-07-29T10:24:06;96952.78;;;23.15
79756;BMP280;69239;50.678;12.280;2023-07-29T10:26:34;96958.28;;;23.08
79756;BMP280;69239;50.678;12.280;2023-07-29T10:29:04;96946.16;;;23.00
79756;BMP280;69239;50.678;12.280;2023-07-29T10:31:30;96953.50;;;22.96
79756;BMP280;69239;50.678;12.280;2023-07-29T10:33:56;96951.78;;;22.86
79756;BMP280;69239;50.678;12.280;2023-07-29T10:36:22;96957.63;;;22.77
79756;BMP280;69239;50.678;12.280;2023-07-29T10:38:48;96963.41;;;22.75
79756;BMP280;69239;50.678;12.280;2023-07-29T10:41:14;96954.69;;;22.71
79756;BMP280;69239;50.678;12.280;2023-07-29T10:43:39;96955.78;;;22.74
79756;BMP280;69239;50.678;12.280;2023-07-29T10:46:17;96957.25;;;22.79
79756;BMP280;69239;50.678;12.280;2023-07-29T10:51:29;96960.06;;;22.71
79756;BMP280;69239;50.678;12.280;2023-07-29T10:56:36;96961.22;;;22.70
79756;BMP280;69239;50.678;12.280;2023-07-29T11:01:50;96959.84;;;22.59
79756;BMP280;69239;50.678;12.280;2023-07-29T11:15:00;96950.44;;;22.47
79756;BMP280;69239;50.678;12.280;2023-07-29T11:17:28;96950.94;;;22.38
79756;BMP280;69239;50.678;12.280;2023-07-29T11:19:56;96957.81;;;22.39
79756;BMP280;69239;50.678;12.280;2023-07-29T11:22:25;96934.09;;;22.38
79756;BMP280;69239;50.678;12.280;2023-07-29T11:24:51;96945.97;;;22.37
79756;BMP280;69239;50.678;12.280;2023-07-29T11:27:16;96946.44;;;22.32
79756;BMP280;69239;50.678;12.280;2023-07-29T11:29:41;96930.97;;;22.16
79756;BMP280;69239;50.678;12.280;2023-07-29T11:32:07;96931.81;;;22.10
79756;BMP280;69239;50.678;12.280;2023-07-29T11:34:34;96927.75;;;21.98
79756;BMP280;69239;50.678;12.280;2023-07-29T11:36:59;96910.97;;;21.90
79756;BMP280;69239;50.678;12.280;2023-07-29T11:39:25;96875.91;;;21.81
79756;BMP280;69239;50.678;12.280;2023-07-29T11:41:50;96889.72;;;21.76
79756;BMP280;69239;50.678;12.280;2023-07-29T11:44:19;96922.72;;;21.73
79756;BMP280;69239;50.678;12.280;2023-07-29T11:46:44;96918.88;;;21.74
79756;BMP280;69239;50.678;12.280;2023-07-29T11:49:10;96920.31;;;21.79
79756;BMP280;69239;50.678;12.280;2023-07-29T11:51:36;96917.97;;;21.84
79756;BMP280;69239;50.678;12.280;2023-07-29T11:54:02;96933.16;;;21.94
79756;BMP280;69239;50.678;12.280;2023-07-29T11:56:29;96942.09;;;22.15
79756;BMP280;69239;50.678;12.280;2023-07-29T11:58:55;96934.63;;;22.29
79756;BMP280;69239;50.678;12.280;2023-07-29T12:01:22;96936.38;;;22.39
79756;BMP280;69239;50.678;12.280;2023-07-29T12:03:48;96949.88;;;22.59
79756;BMP280;69239;50.678;12.280;2023-07-29T12:06:14;96929.22;;;22.80
79756;BMP280;69239;50.678;12.280;2023-07-29T12:08:41;96932.97;;;23.09
79756;BMP280;69239;50.678;12.280;2023-07-29T12:11:08;96943.69;;;23.09
79756;BMP280;69239;50.678;12.280;2023-07-29T12:13:33;96927.22;;;23.07
79756;BMP280;69239;50.678;12.280;2023-07-29T12:16:02;96937.59;;;23.28
79756;BMP280;69239;50.678;12.280;2023-07-29T12:18:32;96931.97;;;23.42
79756;BMP280;69239;50.678;12.280;2023-07-29T12:20:57;96924.25;;;23.64
79756;BMP280;69239;50.678;12.280;2023-07-29T12:23:26;96935.47;;;23.95
79756;BMP280;69239;50.678;12.280;2023-07-29T12:25:57;96919.91;;;24.22
79756;BMP280;69239;50.678;12.280;2023-07-29T12:28:22;96935.81;;;24.49
79756;BMP280;69239;50.678;12.280;2023-07-29T12:30:48;96920.38;;;24.66
79756;BMP280;69239;50.678;12.280;2023-07-29T12:33:31;96925.06;;;24.94
79756;BMP280;69239;50.678;12.280;2023-07-29T12:35:56;96921.88;;;24.99
79756;BMP280;69239;50.678;12.280;2023-07-29T12:38:22;96906.72;;;24.89
79756;BMP280;69239;50.678;12.280;2023-07-29T12:40:47;96901.16;;;24.96
79756;BMP280;69239;50.678;12.280;2023-07-29T12:43:13;96904.25;;;25.24
79756;BMP280;69239;50.678;12.280;2023-07-29T12:45:38;96894.06;;;25.31
79756;BMP280;69239;50.678;12.280;2023-07-29T12:48:06;96897.63;;;25.41
79756;BMP280;69239;50.678;12.280;2023-07-29T12:50:32;96898.53;;;25.63
79756;BMP280;69239;50.678;12.280;2023-07-29T12:52:57;96893.34;;;25.81
79756;BMP280;69239;50.678;12.280;2023-07-29T12:55:22;96886.00;;;25.95
79756;BMP280;69239;50.678;12.280;2023-07-29T12:57:49;96881.38;;;26.08
79756;BMP280;69239;50.678;12.280;2023-07-29T13:00:15;96886.66;;;26.24
79756;BMP280;69239;50.678;12.280;2023-07-29T13:02:40;96869.97;;;26.38
79756;BMP280;69239;50.678;12.280;2023-07-29T13:05:08;96877.66;;;26.61
79756;BMP280;69239;50.678;12.280;2023-07-29T13:07:34;96874.81;;;26.78
79756;BMP280;69239;50.678;12.280;2023-07-29T13:10:00;96864.25;;;26.70
79756;BMP280;69239;50.678;12.280;2023-07-29T13:12:25;96864.25;;;26.70
79756;BMP280;69239;50.678;12.280;2023-07-29T13:14:50;96862.38;;;26.80
79756;BMP280;69239;50.678;12.280;2023-07-29T13:17:16;96867.41;;;26.91
79756;BMP280;69239;50.678;12.280;2023-07-29T13:19:41;96857.84;;;26.99
79756;BMP280;69239;50.678;12.280;2023-07-29T13:22:06;96861.50;;;27.05
79756;BMP280;69239;50.678;12.280;2023-07-29T13:24:32;96862.84;;;27.09
79756;BMP280;69239;50.678;12.280;2023-07-29T13:26:57;96866.06;;;27.17
79756;BMP280;69239;50.678;12.280;2023-07-29T13:29:23;96861.59;;;27.23
79756;BMP280;69239;50.678;12.280;2023-07-29T13:31:48;96853.53;;;27.32
79756;BMP280;69239;50.678;12.280;2023-07-29T13:34:13;96851.50;;;27.45
79756;BMP280;69239;50.678;12.280;2023-07-29T13:36:39;96838.44;;;27.53
79756;BMP280;69239;50.678;12.280;2023-07-29T13:39:04;96842.97;;;27.65
79756;BMP280;69239;50.678;12.280;2023-07-29T13:41:30;96841.56;;;27.82
79756;BMP280;69239;50.678;12.280;2023-07-29T13:43:55;96833.31;;;27.95
79756;BMP280;69239;50.678;12.280;2023-07-29T13:46:20;96829.72;;;27.98
79756;BMP280;69239;50.678;12.280;2023-07-29T13:48:46;96819.00;;;27.94
79756;BMP280;69239;50.678;12.280;2023-07-29T13:51:12;96805.91;;;27.84
79756;BMP280;69239;50.678;12.280;2023-07-29T13:53:37;96819.63;;;27.89
79756;BMP280;69239;50.678;12.280;2023-07-29T13:56:04;96821.72;;;27.94
79756;BMP280;69239;50.678;12.280;2023-07-29T13:58:29;96815.56;;;27.94
79756;BMP280;69239;50.678;12.280;2023-07-29T14:00:54;96810.53;;;27.74
79756;BMP280;69239;50.678;12.280;2023-07-29T14:03:20;96816.13;;;27.62
79756;BMP280;69239;50.678;12.280;2023-07-29T14:05:45;96818.94;;;27.58
79756;BMP280;69239;50.678;12.280;2023-07-29T14:08:11;96818.81;;;27.62
79756;BMP280;69239;50.678;12.280;2023-07-29T14:10:36;96818.19;;;27.67
79756;BMP280;69239;50.678;12.280;2023-07-29T14:13:01;96805.59;;;27.73
79756;BMP280;69239;50.678;12.280;2023-07-29T14:15:27;96813.13;;;27.78
79756;BMP280;69239;50.678;12.280;2023-07-29T14:17:53;96814.03;;;27.75
79756;BMP280;69239;50.678;12.280;2023-07-29T14:20:19;96812.69;;;27.79
79756;BMP280;69239;50.678;12.280;2023-07-29T14:22:44;96800.19;;;27.73